sensor_id;sensor_type;location;lat;lon;timestamp;pressure;altitude;pressure_sealevel;temperature;humidity
68656;BME280;55638;51.122;13.606;2023-04-30T00:00:42;100468.41;;;9.44;58.62
68656;BME280;55638;51.122;13.606;2023-04-30T00:02:14;100470.25;;;9.44;58.63
68656;BME280;55638;51.122;13.606;2023-04-30T00:03:46;100473.78;;;9.44;58.49
68656;BME280;55638;51.122;13.606;2023-04-30T00:05:18;100479.16;;;9.44;58.48
68656;BME280;55638;51.122;13.606;2023-04-30T00:06:49;100480.88;;;9.45;58.43
68656;BME280;55638;51.122;13.606;2023-04-30T00:08:21;100473.78;;;9.44;58.41
68656;BME280;55638;51.122;13.606;2023-04-30T00:09:53;100479.16;;;9.44;58.37
68656;BME280;55638;51.122;13.606;2023-04-30T00:11:25;100480.88;;;9.45;58.39
68656;BME280;55638;51.122;13.606;2023-04-30T00:12:57;100478.31;;;9.44;58.20
68656;BME280;55638;51.122;13.606;2023-04-30T00:14:29;100477.47;;;9.43;58.16
68656;BME280;55638;51.122;13.606;2023-04-30T00:16:01;100481.00;;;9.44;58.13
68656;BME280;55638;51.122;13.606;2023-04-30T00:17:33;100489.31;;;9.41;57.99
68656;BME280;55638;51.122;13.606;2023-04-30T00:19:05;100486.72;;;9.39;57.87
68656;BME280;55638;51.122;13.606;2023-04-30T00:20:37;100490.50;;;9.37;57.83
68656;BME280;55638;51.122;13.606;2023-04-30T00:22:08;100488.03;;;9.34;57.68
68656;BME280;55638;51.122;13.606;2023-04-30T00:23:40;100493.66;;;9.31;57.71
68656;BME280;55638;51.122;13.606;2023-04-30T00:25:12;100488.59;;;9.26;57.59
68656;BME280;55638;51.122;13.606;2023-04-30T00:26:44;100490.66;;;9.22;57.52
68656;BME280;55638;51.122;13.606;2023-04-30T00:28:16;100494.63;;;9.17;57.37
68656;BME280;55638;51.122;13.606;2023-04-30T00:29:48;100491.44;;;9.12;57.30
68656;BME280;55638;51.122;13.606;2023-04-30T00:31:20;100498.22;;;9.05;57.16
68656;BME280;55638;51.122;13.606;2023-04-30T00:32:52;100497.81;;;8.98;57.24
68656;BME280;55638;51.122;13.606;2023-04-30T00:34:23;100497.41;;;8.91;57.12
68656;BME280;55638;51.122;13.606;2023-04-30T00:35:56;100497.19;;;8.82;57.16
68656;BME280;55638;51.122;13.606;2023-04-30T00:37:28;100498.59;;;8.74;57.21
68656;BME280;55638;51.122;13.606;2023-04-30T00:38:59;100500.97;;;8.66;57.08
68656;BME280;55638;51.122;13.606;2023-04-30T00:40:33;100502.47;;;8.57;57.30
68656;BME280;55638;51.122;13.606;2023-04-30T00:42:05;100501.31;;;8.49;57.17
68656;BME280;55638;51.122;13.606;2023-04-30T00:43:37;100501.81;;;8.41;57.43
68656;BME280;55638;51.122;13.606;2023-04-30T00:45:09;100499.75;;;8.32;57.28
68656;BME280;55638;51.122;13.606;2023-04-30T00:46:42;100512.84;;;8.24;57.33
68656;BME280;55638;51.122;13.606;2023-04-30T00:48:14;100514.31;;;8.15;57.44
68656;BME280;55638;51.122;13.606;2023-04-30T00:49:47;100516.78;;;8.05;57.61
68656;BME280;55638;51.122;13.606;2023-04-30T00:51:19;100516.44;;;7.97;57.58
68656;BME280;55638;51.122;13.606;2023-04-30T00:52:51;100521.47;;;7.89;57.71
68656;BME280;55638;51.122;13.606;2023-04-30T00:54:24;100519.38;;;7.80;57.67
68656;BME280;55638;51.122;13.606;2023-04-30T00:55:56;100518.19;;;7.71;57.76
68656;BME280;55638;51.122;13.606;2023-04-30T00:57:29;100524.91;;;7.64;57.95
68656;BME280;55638;51.122;13.606;2023-04-30T00:59:01;100521.03;;;7.55;57.95
68656;BME280;55638;51.122;13.606;2023-04-30T01:00:33;100519.81;;;7.47;58.14
68656;BME280;55638;51.122;13.606;2023-04-30T01:02:05;100518.56;;;7.38;58.26
68656;BME280;55638;51.122;13.606;2023-04-30T01:03:38;100527.97;;;7.31;58.42
68656;BME280;55638;51.122;13.606;2023-04-30T01:05:11;100527.50;;;7.24;58.36
68656;BME280;55638;51.122;13.606;2023-04-30T01:06:43;100527.16;;;7.16;58.50
68656;BME280;55638;51.122;13.606;2023-04-30T01:08:15;100525.72;;;7.10;58.47
68656;BME280;55638;51.122;13.606;2023-04-30T01:09:47;100527.94;;;7.04;58.60
68656;BME280;55638;51.122;13.606;2023-04-30T01:13:11;100537.72;;;6.90;59.43
68656;BME280;55638;51.122;13.606;2023-04-30T01:14:56;100537.13;;;6.85;59.58
68656;BME280;55638;51.122;13.606;2023-04-30T01:16:38;100540.06;;;6.81;59.18
68656;BME280;55638;51.122;13.606;2023-04-30T01:20:06;100539.78;;;6.71;59.17
68656;BME280;55638;51.122;13.606;2023-04-30T01:21:41;100540.16;;;6.65;59.23
68656;BME280;55638;51.122;13.606;2023-04-30T01:23:41;100540.63;;;6.57;60.07
68656;BME280;55638;51.122;13.606;2023-04-30T01:29:14;100548.44;;;6.46;59.45
68656;BME280;55638;51.122;13.606;2023-04-30T01:30:47;100548.75;;;6.41;59.54
68656;BME280;55638;51.122;13.606;2023-04-30T01:32:19;100557.88;;;6.37;59.51
68656;BME280;55638;51.122;13.606;2023-04-30T01:33:51;100551.00;;;6.33;59.50
68656;BME280;55638;51.122;13.606;2023-04-30T01:37:30;100560.66;;;6.21;60.27
68656;BME280;55638;51.122;13.606;2023-04-30T01:40:55;100561.00;;;6.15;59.99
68656;BME280;55638;51.122;13.606;2023-04-30T01:42:41;100564.78;;;6.11;60.40
68656;BME280;55638;51.122;13.606;2023-04-30T01:46:28;100568.88;;;6.03;59.94
68656;BME280;55638;51.122;13.606;2023-04-30T01:48:11;100575.44;;;5.97;60.42
68656;BME280;55638;51.122;13.606;2023-04-30T01:49:55;100577.44;;;5.93;59.84
68656;BME280;55638;51.122;13.606;2023-04-30T01:51:39;100575.97;;;5.88;60.33
68656;BME280;55638;51.122;13.606;2023-04-30T01:53:23;100576.34;;;5.82;60.53
68656;BME280;55638;51.122;13.606;2023-04-30T01:55:04;100580.81;;;5.81;60.11
68656;BME280;55638;51.122;13.606;2023-04-30T01:56:45;100584.72;;;5.75;60.45
68656;BME280;55638;51.122;13.606;2023-04-30T01:58:22;100585.84;;;5.71;60.21
68656;BME280;55638;51.122;13.606;2023-04-30T01:59:55;100586.00;;;5.68;60.08
68656;BME280;55638;51.122;13.606;2023-04-30T02:01:29;100590.59;;;5.66;60.28
68656;BME280;55638;51.122;13.606;2023-04-30T02:03:02;100592.59;;;5.63;60.18
68656;BME280;55638;51.122;13.606;2023-04-30T02:04:34;100596.31;;;5.60;59.95
68656;BME280;55638;51.122;13.606;2023-04-30T02:06:07;100593.78;;;5.57;60.15
68656;BME280;55638;51.122;13.606;2023-04-30T02:07:42;100594.03;;;5.52;60.10
68656;BME280;55638;51.122;13.606;2023-04-30T02:09:15;100605.78;;;5.50;60.02
68656;BME280;55638;51.122;13.606;2023-04-30T02:10:47;100601.53;;;5.46;60.10
68656;BME280;55638;51.122;13.606;2023-04-30T02:12:19;100606.19;;;5.42;60.10
68656;BME280;55638;51.122;13.606;2023-04-30T02:13:50;100608.19;;;5.39;60.04
68656;BME280;55638;51.122;13.606;2023-04-30T02:15:22;100618.13;;;5.37;60.02
68656;BME280;55638;51.122;13.606;2023-04-30T02:16:54;100620.16;;;5.32;60.12
68656;BME280;55638;51.122;13.606;2023-04-30T02:18:26;100626.53;;;5.29;60.21
68656;BME280;55638;51.122;13.606;2023-04-30T02:19:58;100631.16;;;5.25;60.28
68656;BME280;55638;51.122;13.606;2023-04-30T02:21:30;100629.59;;;5.21;60.19
68656;BME280;55638;51.122;13.606;2023-04-30T02:23:02;100640.53;;;5.17;60.30
68656;BME280;55638;51.122;13.606;2023-04-30T02:24:34;100634.47;;;5.13;60.39
68656;BME280;55638;51.122;13.606;2023-04-30T02:26:07;100638.19;;;5.11;60.35
68656;BME280;55638;51.122;13.606;2023-04-30T02:27:39;100640.16;;;5.07;60.35
68656;BME280;55638;51.122;13.606;2023-04-30T02:29:11;100648.31;;;5.04;60.56
68656;BME280;55638;51.122;13.606;2023-04-30T02:30:42;100644.03;;;5.01;60.54
68656;BME280;55638;51.122;13.606;2023-04-30T02:32:15;100654.78;;;5.00;60.67
68656;BME280;55638;51.122;13.606;2023-04-30T02:33:46;100649.69;;;4.95;60.71
68656;BME280;55638;51.122;13.606;2023-04-30T02:35:18;100656.91;;;4.93;60.51
68656;BME280;55638;51.122;13.606;2023-04-30T02:36:50;100660.72;;;4.89;60.53
68656;BME280;55638;51.122;13.606;2023-04-30T02:38:22;100661.72;;;4.87;60.68
68656;BME280;55638;51.122;13.606;2023-04-30T02:39:54;100664.56;;;4.83;60.64
68656;BME280;55638;51.122;13.606;2023-04-30T02:41:29;100662.03;;;4.80;60.61
68656;BME280;55638;51.122;13.606;2023-04-30T02:43:01;100667.53;;;4.77;60.63
68656;BME280;55638;51.122;13.606;2023-04-30T02:44:33;100667.63;;;4.76;60.65
68656;BME280;55638;51.122;13.606;2023-04-30T02:46:05;100665.19;;;4.71;60.78
68656;BME280;55638;51.122;13.606;2023-04-30T02:47:37;100668.00;;;4.68;60.75
68656;BME280;55638;51.122;13.606;2023-04-30T02:49:09;100665.53;;;4.65;60.74
68656;BME280;55638;51.122;13.606;2023-04-30T02:50:41;100667.41;;;4.63;60.75
68656;BME280;55638;51.122;13.606;2023-04-30T02:52:13;100677.28;;;4.61;60.95
68656;BME280;55638;51.122;13.606;2023-04-30T02:53:44;100673.03;;;4.57;60.99
68656;BME280;55638;51.122;13.606;2023-04-30T02:55:17;100675.72;;;4.57;61.08
68656;BME280;55638;51.122;13.606;2023-04-30T02:56:48;100674.00;;;4.56;60.97
68656;BME280;55638;51.122;13.606;2023-04-30T02:58:20;100674.91;;;4.55;61.08
68656;BME280;55638;51.122;13.606;2023-04-30T02:59:53;100683.88;;;4.54;61.26
68656;BME280;55638;51.122;13.606;2023-04-30T03:01:26;100679.50;;;4.53;61.12
68656;BME280;55638;51.122;13.606;2023-04-30T03:02:58;100676.88;;;4.51;61.12
68656;BME280;55638;51.122;13.606;2023-04-30T03:04:31;100691.09;;;4.52;61.30
68656;BME280;55638;51.122;13.606;2023-04-30T03:06:03;100691.19;;;4.50;61.20
68656;BME280;55638;51.122;13.606;2023-04-30T03:07:35;100693.00;;;4.50;61.08
68656;BME280;55638;51.122;13.606;2023-04-30T03:09:08;100693.06;;;4.48;60.98
68656;BME280;55638;51.122;13.606;2023-04-30T03:10:39;100691.44;;;4.46;60.88
68656;BME280;55638;51.122;13.606;2023-04-30T03:12:11;100695.03;;;4.45;60.96
68656;BME280;55638;51.122;13.606;2023-04-30T03:13:45;100698.63;;;4.44;60.72
68656;BME280;55638;51.122;13.606;2023-04-30T03:15:17;100699.66;;;4.41;60.80
68656;BME280;55638;51.122;13.606;2023-04-30T03:16:49;100697.13;;;4.38;60.72
68656;BME280;55638;51.122;13.606;2023-04-30T03:18:21;100702.63;;;4.35;60.81
68656;BME280;55638;51.122;13.606;2023-04-30T03:19:52;100704.50;;;4.33;60.98
68656;BME280;55638;51.122;13.606;2023-04-30T03:21:25;100700.09;;;4.32;60.90
68656;BME280;55638;51.122;13.606;2023-04-30T03:22:56;100707.41;;;4.28;61.12
68656;BME280;55638;51.122;13.606;2023-04-30T03:24:29;100700.41;;;4.26;61.04
68656;BME280;55638;51.122;13.606;2023-04-30T03:26:01;100703.22;;;4.23;61.21
68656;BME280;55638;51.122;13.606;2023-04-30T03:27:33;100713.03;;;4.22;60.97
68656;BME280;55638;51.122;13.606;2023-04-30T03:29:05;100708.63;;;4.21;61.16
68656;BME280;55638;51.122;13.606;2023-04-30T03:30:37;100708.78;;;4.18;61.14
68656;BME280;55638;51.122;13.606;2023-04-30T03:32:08;100710.59;;;4.18;61.25
68656;BME280;55638;51.122;13.606;2023-04-30T03:33:41;100717.81;;;4.16;61.21
68656;BME280;55638;51.122;13.606;2023-04-30T03:35:13;100712.56;;;4.14;61.41
68656;BME280;55638;51.122;13.606;2023-04-30T03:36:45;100714.34;;;4.13;61.48
68656;BME280;55638;51.122;13.606;2023-04-30T03:38:16;100707.28;;;4.12;61.70
68656;BME280;55638;51.122;13.606;2023-04-30T03:39:48;100715.22;;;4.14;61.69
68656;BME280;55638;51.122;13.606;2023-04-30T03:41:20;100714.28;;;4.15;61.95
68656;BME280;55638;51.122;13.606;2023-04-30T03:42:54;100720.41;;;4.17;62.03
68656;BME280;55638;51.122;13.606;2023-04-30T03:44:26;100719.41;;;4.20;62.27
68656;BME280;55638;51.122;13.606;2023-04-30T03:45:58;100721.03;;;4.22;62.22
68656;BME280;55638;51.122;13.606;2023-04-30T03:47:31;100725.31;;;4.26;62.40
68656;BME280;55638;51.122;13.606;2023-04-30T03:49:03;100722.53;;;4.28;62.30
68656;BME280;55638;51.122;13.606;2023-04-30T03:50:35;100723.25;;;4.31;62.49
68656;BME280;55638;51.122;13.606;2023-04-30T03:52:07;100728.44;;;4.34;62.41
68656;BME280;55638;51.122;13.606;2023-04-30T03:53:39;100723.81;;;4.38;62.31
68656;BME280;55638;51.122;13.606;2023-04-30T03:55:11;100725.38;;;4.42;62.12
68656;BME280;55638;51.122;13.606;2023-04-30T03:56:44;100736.81;;;4.46;61.81
68656;BME280;55638;51.122;13.606;2023-04-30T03:58:16;100732.25;;;4.48;61.99
68656;BME280;55638;51.122;13.606;2023-04-30T03:59:49;100731.28;;;4.49;61.86
68656;BME280;55638;51.122;13.606;2023-04-30T04:01:21;100729.41;;;4.51;61.70
68656;BME280;55638;51.122;13.606;2023-04-30T04:02:53;100732.03;;;4.52;61.46
68656;BME280;55638;51.122;13.606;2023-04-30T04:04:25;100743.56;;;4.53;61.48
68656;BME280;55638;51.122;13.606;2023-04-30T04:05:57;100735.56;;;4.53;61.40
68656;BME280;55638;51.122;13.606;2023-04-30T04:07:29;100747.97;;;4.54;61.55
68656;BME280;55638;51.122;13.606;2023-04-30T04:09:01;100745.28;;;4.54;61.23
68656;BME280;55638;51.122;13.606;2023-04-30T04:10:35;100748.91;;;4.53;61.28
68656;BME280;55638;51.122;13.606;2023-04-30T04:12:06;100738.13;;;4.54;61.33
68656;BME280;55638;51.122;13.606;2023-04-30T04:13:39;100749.78;;;4.53;61.23
68656;BME280;55638;51.122;13.606;2023-04-30T04:15:11;100742.72;;;4.52;61.25
68656;BME280;55638;51.122;13.606;2023-04-30T04:16:44;100750.72;;;4.52;61.28
68656;BME280;55638;51.122;13.606;2023-04-30T04:18:16;100750.78;;;4.51;61.15
68656;BME280;55638;51.122;13.606;2023-04-30T04:19:48;100752.59;;;4.50;61.11
68656;BME280;55638;51.122;13.606;2023-04-30T04:21:21;100757.97;;;4.49;61.01
68656;BME280;55638;51.122;13.606;2023-04-30T04:22:53;100757.13;;;4.48;60.96
68656;BME280;55638;51.122;13.606;2023-04-30T04:24:25;100758.94;;;4.48;61.22
68656;BME280;55638;51.122;13.606;2023-04-30T04:25:57;100757.22;;;4.47;61.23
68656;BME280;55638;51.122;13.606;2023-04-30T04:27:29;100765.28;;;4.45;61.10
68656;BME280;55638;51.122;13.606;2023-04-30T04:29:01;100764.41;;;4.45;61.02
68656;BME280;55638;51.122;13.606;2023-04-30T04:30:34;100766.31;;;4.43;61.18
68656;BME280;55638;51.122;13.606;2023-04-30T04:32:08;100769.00;;;4.43;60.95
68656;BME280;55638;51.122;13.606;2023-04-30T04:35:15;100772.72;;;4.39;61.21
68656;BME280;55638;51.122;13.606;2023-04-30T04:36:48;100770.16;;;4.37;61.21
68656;BME280;55638;51.122;13.606;2023-04-30T04:38:19;100777.22;;;4.38;61.04
68656;BME280;55638;51.122;13.606;2023-04-30T04:39:52;100785.31;;;4.36;61.04
68656;BME280;55638;51.122;13.606;2023-04-30T04:41:24;100783.56;;;4.35;61.17
68656;BME280;55638;51.122;13.606;2023-04-30T04:42:57;100787.16;;;4.34;61.17
68656;BME280;55638;51.122;13.606;2023-04-30T04:44:29;100788.97;;;4.34;61.33
68656;BME280;55638;51.122;13.606;2023-04-30T04:46:01;100780.09;;;4.33;61.50
68656;BME280;55638;51.122;13.606;2023-04-30T04:47:32;100789.03;;;4.32;61.37
68656;BME280;55638;51.122;13.606;2023-04-30T04:49:04;100789.94;;;4.33;61.47
68656;BME280;55638;51.122;13.606;2023-04-30T04:50:37;100799.72;;;4.32;61.58
68656;BME280;55638;51.122;13.606;2023-04-30T04:52:09;100802.38;;;4.32;61.42
68656;BME280;55638;51.122;13.606;2023-04-30T04:53:40;100811.19;;;4.34;61.66
68656;BME280;55638;51.122;13.606;2023-04-30T04:55:13;100806.81;;;4.33;61.72
68656;BME280;55638;51.122;13.606;2023-04-30T04:56:46;100814.81;;;4.33;61.70
68656;BME280;55638;51.122;13.606;2023-04-30T04:58:19;100813.81;;;4.36;61.67
68656;BME280;55638;51.122;13.606;2023-04-30T04:59:51;100812.00;;;4.36;61.81
68656;BME280;55638;51.122;13.606;2023-04-30T05:01:23;100809.19;;;4.40;61.88
68656;BME280;55638;51.122;13.606;2023-04-30T05:02:55;100818.91;;;4.41;61.81
68656;BME280;55638;51.122;13.606;2023-04-30T05:04:27;100809.94;;;4.42;61.89
68656;BME280;55638;51.122;13.606;2023-04-30T05:06:01;100816.09;;;4.44;62.02
68656;BME280;55638;51.122;13.606;2023-04-30T05:07:33;100814.22;;;4.46;61.87
68656;BME280;55638;51.122;13.606;2023-04-30T05:09:06;100815.84;;;4.48;61.98
68656;BME280;55638;51.122;13.606;2023-04-30T05:10:39;100809.50;;;4.51;62.16
68656;BME280;55638;51.122;13.606;2023-04-30T05:12:12;100818.19;;;4.56;62.12
68656;BME280;55638;51.122;13.606;2023-04-30T05:13:44;100815.38;;;4.59;62.22
68656;BME280;55638;51.122;13.606;2023-04-30T05:15:16;100821.31;;;4.64;62.22
68656;BME280;55638;51.122;13.606;2023-04-30T05:16:48;100824.81;;;4.66;62.61
68656;BME280;55638;51.122;13.606;2023-04-30T05:18:20;100819.06;;;4.74;63.62
68656;BME280;55638;51.122;13.606;2023-04-30T05:19:52;100825.84;;;4.81;64.49
68656;BME280;55638;51.122;13.606;2023-04-30T05:21:24;100826.91;;;4.96;65.44
68656;BME280;55638;51.122;13.606;2023-04-30T05:23:00;100836.66;;;5.14;66.07
68656;BME280;55638;51.122;13.606;2023-04-30T05:24:32;100828.38;;;5.38;66.70
68656;BME280;55638;51.122;13.606;2023-04-30T05:26:04;100833.13;;;5.66;66.91
68656;BME280;55638;51.122;13.606;2023-04-30T05:27:37;100830.53;;;5.97;67.07
68656;BME280;55638;51.122;13.606;2023-04-30T05:29:09;100829.72;;;6.29;67.03
68656;BME280;55638;51.122;13.606;2023-04-30T05:30:42;100824.97;;;6.65;66.53
68656;BME280;55638;51.122;13.606;2023-04-30T05:32:14;100827.38;;;7.02;65.99
68656;BME280;55638;51.122;13.606;2023-04-30T05:33:47;100818.97;;;7.38;65.59
68656;BME280;55638;51.122;13.606;2023-04-30T05:35:19;100827.47;;;7.75;65.11
68656;BME280;55638;51.122;13.606;2023-04-30T05:36:50;100816.25;;;8.11;64.79
68656;BME280;55638;51.122;13.606;2023-04-30T05:38:22;100821.13;;;8.47;64.35
68656;BME280;55638;51.122;13.606;2023-04-30T05:39:54;100831.94;;;8.87;63.54
68656;BME280;55638;51.122;13.606;2023-04-30T05:41:26;100836.72;;;9.23;63.09
68656;BME280;55638;51.122;13.606;2023-04-30T05:42:58;100840.66;;;9.58;62.00
68656;BME280;55638;51.122;13.606;2023-04-30T05:44:30;100834.75;;;9.91;61.12
68656;BME280;55638;51.122;13.606;2023-04-30T05:46:02;100843.22;;;10.23;60.53
68656;BME280;55638;51.122;13.606;2023-04-30T05:47:34;100832.94;;;10.54;59.82
68656;BME280;55638;51.122;13.606;2023-04-30T05:49:06;100833.50;;;10.83;59.38
68656;BME280;55638;51.122;13.606;2023-04-30T05:50:38;100830.56;;;11.10;58.92
68656;BME280;55638;51.122;13.606;2023-04-30T05:52:10;100829.44;;;11.36;58.37
68656;BME280;55638;51.122;13.606;2023-04-30T05:53:42;100835.53;;;11.63;57.85
68656;BME280;55638;51.122;13.606;2023-04-30T05:55:14;100841.84;;;11.86;56.51
68656;BME280;55638;51.122;13.606;2023-04-30T05:56:46;100829.59;;;12.04;55.60
68656;BME280;55638;51.122;13.606;2023-04-30T05:58:18;100828.38;;;12.19;55.04
68656;BME280;55638;51.122;13.606;2023-04-30T05:59:50;100827.38;;;12.32;54.71
68656;BME280;55638;51.122;13.606;2023-04-30T06:01:22;100829.34;;;12.41;54.18
68656;BME280;55638;51.122;13.606;2023-04-30T06:02:54;100833.00;;;12.51;54.41
68656;BME280;55638;51.122;13.606;2023-04-30T06:04:26;100834.09;;;12.60;54.18
68656;BME280;55638;51.122;13.606;2023-04-30T06:05:58;100825.94;;;12.71;54.08
68656;BME280;55638;51.122;13.606;2023-04-30T06:07:29;100833.09;;;12.83;53.46
68656;BME280;55638;51.122;13.606;2023-04-30T06:09:01;100836.63;;;12.95;53.25
68656;BME280;55638;51.122;13.606;2023-04-30T06:10:34;100833.16;;;13.04;52.94
68656;BME280;55638;51.122;13.606;2023-04-30T06:12:06;100837.66;;;13.15;53.12
68656;BME280;55638;51.122;13.606;2023-04-30T06:13:38;100839.47;;;13.26;53.41
68656;BME280;55638;51.122;13.606;2023-04-30T06:15:10;100838.41;;;13.38;52.75
68656;BME280;55638;51.122;13.606;2023-04-30T06:16:43;100835.69;;;13.49;52.23
68656;BME280;55638;51.122;13.606;2023-04-30T06:18:15;100840.28;;;13.58;51.85
68656;BME280;55638;51.122;13.606;2023-04-30T06:19:47;100844.63;;;13.71;52.07
68656;BME280;55638;51.122;13.606;2023-04-30T06:21:19;100842.75;;;13.82;52.05
68656;BME280;55638;51.122;13.606;2023-04-30T06:22:51;100843.41;;;13.96;52.23
68656;BME280;55638;51.122;13.606;2023-04-30T06:24:23;100844.91;;;14.09;51.48
68656;BME280;55638;51.122;13.606;2023-04-30T06:25:58;100838.41;;;14.22;50.63
68656;BME280;55638;51.122;13.606;2023-04-30T06:27:30;100842.72;;;14.34;49.96
68656;BME280;55638;51.122;13.606;2023-04-30T06:29:03;100847.31;;;14.43;49.72
68656;BME280;55638;51.122;13.606;2023-04-30T06:30:36;100843.06;;;14.50;49.27
68656;BME280;55638;51.122;13.606;2023-04-30T06:32:07;100845.50;;;14.53;49.10
68656;BME280;55638;51.122;13.606;2023-04-30T06:33:39;100841.38;;;14.59;48.39
68656;BME280;55638;51.122;13.606;2023-04-30T06:35:11;100842.09;;;14.61;48.04
68656;BME280;55638;51.122;13.606;2023-04-30T06:36:43;100843.97;;;14.60;48.12
68656;BME280;55638;51.122;13.606;2023-04-30T06:38:15;100840.50;;;14.58;47.56
68656;BME280;55638;51.122;13.606;2023-04-30T06:39:48;100842.06;;;14.51;47.22
68656;BME280;55638;51.122;13.606;2023-04-30T06:41:21;100850.75;;;14.45;46.83
68656;BME280;55638;51.122;13.606;2023-04-30T06:42:53;100842.72;;;14.34;46.39
68656;BME280;55638;51.122;13.606;2023-04-30T06:44:25;100836.69;;;14.21;46.52
68656;BME280;55638;51.122;13.606;2023-04-30T06:45:57;100838.88;;;14.06;46.71
68656;BME280;55638;51.122;13.606;2023-04-30T06:47:30;100834.81;;;13.90;46.65
68656;BME280;55638;51.122;13.606;2023-04-30T06:49:08;100840.69;;;13.75;47.09
68656;BME280;55638;51.122;13.606;2023-04-30T06:50:40;100843.56;;;13.62;47.66
68656;BME280;55638;51.122;13.606;2023-04-30T06:52:15;100848.22;;;13.50;47.50
68656;BME280;55638;51.122;13.606;2023-04-30T06:53:47;100843.72;;;13.39;47.29
68656;BME280;55638;51.122;13.606;2023-04-30T06:55:19;100850.03;;;13.29;47.47
68656;BME280;55638;51.122;13.606;2023-04-30T06:56:51;100847.25;;;13.19;47.34
68656;BME280;55638;51.122;13.606;2023-04-30T06:58:23;100851.59;;;13.10;47.67
68656;BME280;55638;51.122;13.606;2023-04-30T06:59:55;100847.91;;;13.00;47.53
68656;BME280;55638;51.122;13.606;2023-04-30T07:01:27;100844.00;;;12.93;47.92
68656;BME280;55638;51.122;13.606;2023-04-30T07:02:59;100850.94;;;12.86;47.79
68656;BME280;55638;51.122;13.606;2023-04-30T07:04:33;100845.53;;;12.74;47.75
68656;BME280;55638;51.122;13.606;2023-04-30T07:06:05;100847.25;;;12.64;47.82
68656;BME280;55638;51.122;13.606;2023-04-30T07:07:37;100850.47;;;12.58;48.40
68656;BME280;55638;51.122;13.606;2023-04-30T07:09:09;100848.88;;;12.56;49.31
68656;BME280;55638;51.122;13.606;2023-04-30T07:10:41;100849.72;;;12.56;49.79
68656;BME280;55638;51.122;13.606;2023-04-30T07:12:13;100853.78;;;12.62;50.04
68656;BME280;55638;51.122;13.606;2023-04-30T07:13:45;100856.84;;;12.68;50.08
68656;BME280;55638;51.122;13.606;2023-04-30T07:15:17;100853.13;;;12.81;50.51
68656;BME280;55638;51.122;13.606;2023-04-30T07:16:49;100849.31;;;12.94;50.60
68656;BME280;55638;51.122;13.606;2023-04-30T07:18:21;100850.72;;;13.10;50.66
68656;BME280;55638;51.122;13.606;2023-04-30T07:19:53;100854.84;;;13.25;50.36
68656;BME280;55638;51.122;13.606;2023-04-30T07:21:25;100859.41;;;13.45;50.41
68656;BME280;55638;51.122;13.606;2023-04-30T07:22:58;100851.44;;;13.65;49.81
68656;BME280;55638;51.122;13.606;2023-04-30T07:24:30;100854.47;;;13.83;49.23
68656;BME280;55638;51.122;13.606;2023-04-30T07:26:01;100853.56;;;14.03;49.63
68656;BME280;55638;51.122;13.606;2023-04-30T07:27:33;100847.22;;;14.24;49.30
68656;BME280;55638;51.122;13.606;2023-04-30T07:29:05;100854.47;;;14.44;49.17
68656;BME280;55638;51.122;13.606;2023-04-30T07:30:37;100850.84;;;14.65;48.56
68656;BME280;55638;51.122;13.606;2023-04-30T07:32:09;100856.31;;;14.84;48.57
68656;BME280;55638;51.122;13.606;2023-04-30T07:33:41;100852.91;;;15.01;47.50
68656;BME280;55638;51.122;13.606;2023-04-30T07:35:13;100856.09;;;15.16;47.31
68656;BME280;55638;51.122;13.606;2023-04-30T07:36:47;100849.66;;;15.27;46.13
68656;BME280;55638;51.122;13.606;2023-04-30T07:38:18;100851.66;;;15.35;46.65
68656;BME280;55638;51.122;13.606;2023-04-30T07:39:50;100854.66;;;15.41;46.58
68656;BME280;55638;51.122;13.606;2023-04-30T07:41:24;100849.09;;;15.52;47.20
68656;BME280;55638;51.122;13.606;2023-04-30T07:42:56;100850.66;;;15.65;46.79
68656;BME280;55638;51.122;13.606;2023-04-30T07:44:28;100854.78;;;15.78;47.28
68656;BME280;55638;51.122;13.606;2023-04-30T07:46:00;100861.47;;;15.94;46.86
68656;BME280;55638;51.122;13.606;2023-04-30T07:47:33;100860.31;;;16.06;45.20
68656;BME280;55638;51.122;13.606;2023-04-30T07:49:05;100855.97;;;16.13;44.75
68656;BME280;55638;51.122;13.606;2023-04-30T07:50:36;100860.41;;;16.14;43.83
68656;BME280;55638;51.122;13.606;2023-04-30T07:52:08;100860.56;;;16.13;44.10
68656;BME280;55638;51.122;13.606;2023-04-30T07:53:41;100861.72;;;16.10;44.25
68656;BME280;55638;51.122;13.606;2023-04-30T07:55:13;100861.72;;;16.10;44.59
68656;BME280;55638;51.122;13.606;2023-04-30T07:56:45;100858.84;;;16.12;44.92
68656;BME280;55638;51.122;13.606;2023-04-30T07:58:19;100867.84;;;16.12;44.49
68656;BME280;55638;51.122;13.606;2023-04-30T07:59:52;100862.13;;;16.15;44.29
68656;BME280;55638;51.122;13.606;2023-04-30T08:01:25;100866.00;;;16.13;43.97
68656;BME280;55638;51.122;13.606;2023-04-30T08:02:58;100860.88;;;16.10;43.45
68656;BME280;55638;51.122;13.606;2023-04-30T08:04:31;100866.88;;;16.04;43.95
68656;BME280;55638;51.122;13.606;2023-04-30T08:06:04;100866.16;;;16.01;44.03
68656;BME280;55638;51.122;13.606;2023-04-30T08:07:36;100863.75;;;15.98;43.80
68656;BME280;55638;51.122;13.606;2023-04-30T08:09:08;100865.47;;;15.99;44.72
68656;BME280;55638;51.122;13.606;2023-04-30T08:10:40;100861.44;;;16.04;44.96
68656;BME280;55638;51.122;13.606;2023-04-30T08:12:12;100864.28;;;16.12;44.93
68656;BME280;55638;51.122;13.606;2023-04-30T08:13:44;100865.25;;;16.20;44.97
68656;BME280;55638;51.122;13.606;2023-04-30T08:15:17;100869.50;;;16.33;44.42
68656;BME280;55638;51.122;13.606;2023-04-30T08:16:52;100865.78;;;16.43;43.77
68656;BME280;55638;51.122;13.606;2023-04-30T08:18:24;100858.97;;;16.57;43.86